Hiko, Nevada
Current Conditions -  °F | °C
As of 11:58 PM on Wednesday 28 Jan 2015 (Local Time) from KINS Reporting Station
Clear Clear  
Wind Chill:   Ceiling: Unl
Heat Index:   Visibility: 10mi
Dew Point:   Wind: 0mph
Humidity: 74%   Direction: NA
Pressure: 30.21"   Gusts: NA
Location:  37.6°N, 115.23°W
Report Text: KINS 290758Z AUTO 00000KT 10SM CLR 09/05 A3021 RMK AO2 SLP211 T00940050 401620034
Loading
Personal Weather Stations






























Interactive Weather Map New forecast layout! Learn more

10-Day Weather Forecast

Advertisements
Track Severe Weather on mobile